createdAt,value
2017-08-15T00:01:41.322Z,67.20
2017-08-15T00:04:08.395Z,66.90
2017-08-15T00:06:34.971Z,66.40
2017-08-15T00:09:01.521Z,65.80
2017-08-15T00:11:28.204Z,65.70
2017-08-15T00:13:54.768Z,65.60
2017-08-15T00:16:21.337Z,65.90
2017-08-15T00:18:48.045Z,65.90
2017-08-15T00:21:16.290Z,66.10
2017-08-15T00:23:42.661Z,65.90
2017-08-15T00:26:09.136Z,65.60
2017-08-15T00:28:35.505Z,65.80
2017-08-15T00:31:01.917Z,66.20
2017-08-15T00:33:28.507Z,66.50
2017-08-15T00:35:55.126Z,65.80
2017-08-15T00:38:21.746Z,65.70
2017-08-15T00:40:48.390Z,65.40
2017-08-15T00:43:14.992Z,65.70
2017-08-15T00:45:41.544Z,66.20
2017-08-15T00:48:07.939Z,65.60
2017-08-15T00:50:34.521Z,65.40
2017-08-15T00:53:01.311Z,65.40
2017-08-15T00:55:28.204Z,65.50
2017-08-15T00:57:54.828Z,66.10
2017-08-15T01:00:21.289Z,66.30
2017-08-15T01:02:47.917Z,66.10
2017-08-15T01:05:15.044Z,67.10
2017-08-15T01:07:41.720Z,67.00
2017-08-15T01:10:08.118Z,66.80
2017-08-15T01:12:34.490Z,66.90
2017-08-15T01:15:01.784Z,66.30
2017-08-15T01:17:28.817Z,66.30
2017-08-15T01:19:55.240Z,66.30
2017-08-15T01:22:21.619Z,66.70
2017-08-15T01:24:48.771Z,67.80
2017-08-15T01:27:15.139Z,68.00
2017-08-15T01:29:41.481Z,68.40
2017-08-15T01:32:07.866Z,68.70
2017-08-15T01:34:34.208Z,68.80
2017-08-15T01:37:00.571Z,68.30
2017-08-15T01:39:26.993Z,68.30
2017-08-15T01:41:53.443Z,68.60
2017-08-15T01:44:20.168Z,68.70
2017-08-15T01:46:47.089Z,68.30
2017-08-15T01:49:13.418Z,68.30
2017-08-15T01:51:40.514Z,68.10
2017-08-15T01:54:06.856Z,68.10
2017-08-15T01:56:33.240Z,67.40
2017-08-15T01:58:59.793Z,67.10
2017-08-15T02:01:27.200Z,66.90
2017-08-15T02:03:53.548Z,66.80
2017-08-15T02:06:20.684Z,66.30
2017-08-15T02:08:47.262Z,65.80
2017-08-15T02:11:13.840Z,66.00
2017-08-15T02:13:40.272Z,66.40
2017-08-15T02:16:06.831Z,65.90
2017-08-15T02:18:33.169Z,66.50
2017-08-15T02:20:59.722Z,66.50
2017-08-15T02:23:26.072Z,66.00
2017-08-15T02:25:53.376Z,66.20
2017-08-15T02:28:19.716Z,66.20
2017-08-15T02:30:46.117Z,66.30
2017-08-15T02:33:12.530Z,66.20
2017-08-15T02:35:40.322Z,66.10
2017-08-15T02:38:06.676Z,66.90
2017-08-15T02:40:33.051Z,66.60
2017-08-15T02:42:59.556Z,66.50
2017-08-15T02:45:25.941Z,66.10
2017-08-15T02:47:52.294Z,66.30
2017-08-15T02:50:18.652Z,66.80
2017-08-15T02:52:45.024Z,65.90
2017-08-15T02:55:11.402Z,66.50
2017-08-15T02:57:37.765Z,66.50
2017-08-15T03:00:04.188Z,66.40
2017-08-15T03:02:30.540Z,66.60
2017-08-15T03:04:58.607Z,66.20
2017-08-15T03:07:24.977Z,66.40
2017-08-15T03:09:51.389Z,66.50
2017-08-15T03:12:17.728Z,66.00
2017-08-15T03:14:44.069Z,66.60
2017-08-15T03:17:11.219Z,66.40
2017-08-15T03:19:37.624Z,66.30
2017-08-15T03:22:04.023Z,66.90
2017-08-15T03:24:30.369Z,66.30
2017-08-15T03:26:56.841Z,66.80
2017-08-15T03:29:23.249Z,66.70
2017-08-15T03:31:49.578Z,67.00
2017-08-15T03:34:15.935Z,66.70
2017-08-15T03:36:42.286Z,68.00
2017-08-15T03:39:08.621Z,67.50
2017-08-15T03:41:34.983Z,67.80
2017-08-15T03:44:01.524Z,67.30
2017-08-15T03:46:28.157Z,67.30
2017-08-15T03:48:54.707Z,67.00
2017-08-15T03:51:21.537Z,66.90
2017-08-15T03:53:48.124Z,67.50
2017-08-15T03:56:14.668Z,66.70
2017-08-15T03:58:41.245Z,67.60
2017-08-15T04:01:07.800Z,67.40
2017-08-15T04:03:34.386Z,66.40
2017-08-15T04:06:01.004Z,67.80
2017-08-15T04:08:27.709Z,67.40
2017-08-15T04:10:54.273Z,67.30
2017-08-15T04:13:20.844Z,66.90
2017-08-15T04:15:47.444Z,67.50
2017-08-15T04:18:13.994Z,67.00
2017-08-15T04:20:40.623Z,66.80
2017-08-15T04:23:07.623Z,66.60
2017-08-15T04:25:34.252Z,67.20
2017-08-15T04:28:00.869Z,67.60
2017-08-15T04:30:28.277Z,67.40
2017-08-15T04:32:55.561Z,67.90
2017-08-15T04:35:22.182Z,67.30
2017-08-15T04:37:48.830Z,67.90
2017-08-15T04:40:16.209Z,67.50
2017-08-15T04:42:43.610Z,67.40
2017-08-15T04:45:10.631Z,67.40
2017-08-15T04:47:37.202Z,67.20
2017-08-15T04:50:03.824Z,66.80
2017-08-15T04:52:30.363Z,67.00
2017-08-15T04:54:56.889Z,66.70
2017-08-15T04:57:23.974Z,66.60
2017-08-15T04:59:50.393Z,66.60
2017-08-15T05:02:16.761Z,67.20
2017-08-15T05:04:43.115Z,67.40
2017-08-15T05:07:09.427Z,67.70
2017-08-15T05:09:35.857Z,68.00
2017-08-15T05:12:02.447Z,67.30
2017-08-15T05:14:29.777Z,68.10
2017-08-15T05:16:56.147Z,68.00
2017-08-15T05:19:22.472Z,67.50
2017-08-15T05:21:48.891Z,67.70
2017-08-15T05:24:15.233Z,67.40
2017-08-15T05:26:41.557Z,67.90
2017-08-15T05:29:08.100Z,68.30
2017-08-15T05:31:34.429Z,67.30
2017-08-15T05:34:00.905Z,67.60
2017-08-15T05:36:28.256Z,68.00
2017-08-15T05:38:54.929Z,67.50
2017-08-15T05:41:21.300Z,67.60
2017-08-15T05:43:47.920Z,66.90
2017-08-15T05:46:14.527Z,67.00
2017-08-15T05:48:41.107Z,66.50
2017-08-15T05:51:08.140Z,66.50
2017-08-15T05:53:34.468Z,67.10
2017-08-15T05:56:01.104Z,66.70
2017-08-15T05:58:28.050Z,66.00
2017-08-15T06:00:54.758Z,66.90
2017-08-15T06:03:21.358Z,66.80
2017-08-15T06:05:47.936Z,66.80
2017-08-15T06:08:15.492Z,68.30
2017-08-15T06:10:42.003Z,68.30
2017-08-15T06:13:09.477Z,68.70
2017-08-15T06:15:36.039Z,70.40
2017-08-15T06:18:03.458Z,69.50
2017-08-15T06:20:29.992Z,69.50
2017-08-15T06:22:57.501Z,68.60
2017-08-15T06:25:24.881Z,68.30
2017-08-15T06:27:51.452Z,67.60
2017-08-15T06:30:18.049Z,67.80
2017-08-15T06:32:44.636Z,67.10
2017-08-15T06:35:11.188Z,66.00
2017-08-15T06:37:37.740Z,66.40
2017-08-15T06:40:04.335Z,66.00
2017-08-15T06:42:30.906Z,66.40
2017-08-15T06:44:57.464Z,65.90
2017-08-15T06:47:24.969Z,66.40
2017-08-15T06:49:51.565Z,66.40
2017-08-15T06:52:18.189Z,66.40
2017-08-15T06:54:44.904Z,66.20
2017-08-15T06:57:11.496Z,65.80
2017-08-15T06:59:38.598Z,65.80
2017-08-15T07:02:05.237Z,65.10
2017-08-15T07:04:32.588Z,64.50
2017-08-15T07:06:59.128Z,63.80
2017-08-15T07:09:25.725Z,63.60
2017-08-15T07:11:53.016Z,62.40
2017-08-15T07:14:19.519Z,62.40
2017-08-15T07:16:46.417Z,60.40
2017-08-15T07:19:12.933Z,62.90
2017-08-15T07:21:39.668Z,62.60
2017-08-15T07:24:06.267Z,62.40
2017-08-15T07:26:33.610Z,62.40
2017-08-15T07:29:00.187Z,62.30
2017-08-15T07:31:26.942Z,61.40
2017-08-15T07:33:53.592Z,61.10
2017-08-15T07:36:21.025Z,60.60
2017-08-15T07:38:47.674Z,60.00
2017-08-15T07:41:14.322Z,60.90
2017-08-15T07:43:40.872Z,60.10
2017-08-15T07:46:07.587Z,60.50
2017-08-15T07:48:34.793Z,59.90
2017-08-15T07:51:01.393Z,59.90
2017-08-15T07:53:28.319Z,59.40
2017-08-15T07:55:54.875Z,59.80
2017-08-15T07:58:22.284Z,58.50
2017-08-15T08:00:55.442Z,58.40
2017-08-15T08:03:21.981Z,57.00
2017-08-15T08:05:48.519Z,58.80
2017-08-15T08:08:15.044Z,58.50
2017-08-15T08:10:41.672Z,56.60
2017-08-15T08:13:08.351Z,56.70
2017-08-15T08:15:36.706Z,56.80
2017-08-15T08:18:04.021Z,55.40
2017-08-15T08:20:31.340Z,55.30
2017-08-15T08:22:57.941Z,55.30
2017-08-15T08:25:24.629Z,55.50
2017-08-15T08:27:51.185Z,55.70
2017-08-15T08:30:18.374Z,55.20
2017-08-15T08:32:45.656Z,55.30
2017-08-15T08:35:12.197Z,55.30
2017-08-15T08:37:38.779Z,53.70
2017-08-15T08:40:05.300Z,53.30
2017-08-15T08:42:33.480Z,53.10
2017-08-15T08:45:00.037Z,53.00
2017-08-15T08:47:26.619Z,52.70
2017-08-15T08:49:53.174Z,53.30
2017-08-15T08:52:20.486Z,53.60
2017-08-15T08:54:47.075Z,53.20
2017-08-15T08:57:13.606Z,53.90
2017-08-15T08:59:40.805Z,52.30
2017-08-15T09:02:07.524Z,53.90
2017-08-15T09:04:34.048Z,54.10
2017-08-15T09:07:00.592Z,53.10
2017-08-15T09:09:27.168Z,53.90
2017-08-15T09:11:53.771Z,52.10
2017-08-15T09:14:20.368Z,52.80
2017-08-15T09:16:48.005Z,53.10
2017-08-15T09:19:14.589Z,51.90
2017-08-15T09:21:41.175Z,52.20
2017-08-15T09:24:07.769Z,51.90
2017-08-15T09:26:34.486Z,51.50
2017-08-15T09:29:06.824Z,52.80
2017-08-15T09:31:33.449Z,52.80
2017-08-15T09:33:59.992Z,51.50
2017-08-15T09:36:26.614Z,51.90
2017-08-15T09:38:53.274Z,50.90
2017-08-15T09:41:19.892Z,51.10
2017-08-15T09:43:46.684Z,51.30
2017-08-15T09:46:17.381Z,51.60
2017-08-15T09:48:43.994Z,51.50
2017-08-15T09:51:10.513Z,52.10
2017-08-15T09:53:37.073Z,51.30
2017-08-15T09:56:03.640Z,51.10
2017-08-15T09:58:39.697Z,51.10
2017-08-15T10:01:06.272Z,51.40
2017-08-15T10:03:32.850Z,52.20
2017-08-15T10:05:59.511Z,51.70
2017-08-15T10:08:26.108Z,52.30
2017-08-15T10:10:52.690Z,52.20
2017-08-15T10:13:19.284Z,51.50
2017-08-15T10:15:45.925Z,52.10
2017-08-15T10:18:12.525Z,51.70
2017-08-15T10:20:39.894Z,51.90
2017-08-15T10:23:06.554Z,51.90
2017-08-15T10:25:33.114Z,51.90
2017-08-15T10:27:59.664Z,52.80
2017-08-15T10:30:26.224Z,53.00
2017-08-15T10:32:52.787Z,52.20
2017-08-15T10:35:19.328Z,53.40
2017-08-15T10:37:45.916Z,54.10
2017-08-15T10:40:12.540Z,54.70
2017-08-15T10:42:39.160Z,54.80
2017-08-15T10:45:05.749Z,55.40
2017-08-15T10:47:32.313Z,55.30
2017-08-15T10:49:59.711Z,56.60
2017-08-15T10:52:26.260Z,56.40
2017-08-15T10:54:52.915Z,57.40
2017-08-15T10:57:19.508Z,58.10
2017-08-15T10:59:46.142Z,58.90
2017-08-15T11:02:12.742Z,58.80
2017-08-15T11:04:39.384Z,58.80
2017-08-15T11:07:05.924Z,59.00
2017-08-15T11:09:32.453Z,59.50
2017-08-15T11:11:59.027Z,60.50
2017-08-15T11:14:25.607Z,59.50
2017-08-15T11:16:52.360Z,59.50
2017-08-15T11:19:18.941Z,60.20
2017-08-15T11:21:45.539Z,60.60
2017-08-15T11:24:12.421Z,61.00
2017-08-15T11:26:39.769Z,61.60
2017-08-15T11:29:06.333Z,61.60
2017-08-15T11:31:36.713Z,59.60
2017-08-15T11:34:03.312Z,58.10
2017-08-15T11:36:29.875Z,59.80
2017-08-15T11:38:56.472Z,57.90
2017-08-15T11:41:22.916Z,58.80
2017-08-15T11:43:50.206Z,57.70
2017-08-15T11:46:18.267Z,56.90
2017-08-15T11:48:44.861Z,57.00
2017-08-15T11:51:11.417Z,54.80
2017-08-15T11:53:37.972Z,54.20
2017-08-15T11:56:04.540Z,54.40
2017-08-15T11:58:31.104Z,53.70
2017-08-15T12:00:57.676Z,53.10
2017-08-15T12:03:24.310Z,54.90
2017-08-15T12:05:51.899Z,53.70
2017-08-15T12:08:18.538Z,54.70
2017-08-15T12:10:45.137Z,53.70
2017-08-15T12:13:11.719Z,52.80
2017-08-15T12:15:38.280Z,54.40
2017-08-15T12:18:04.755Z,51.50
2017-08-15T12:20:31.376Z,53.20
2017-08-15T12:22:58.640Z,55.00
2017-08-15T12:25:27.469Z,54.90
2017-08-15T12:27:55.174Z,52.10
2017-08-15T12:30:22.480Z,51.90
2017-08-15T12:32:49.572Z,50.00
2017-08-15T12:35:16.124Z,49.50
2017-08-15T12:37:42.636Z,50.00
2017-08-15T12:40:09.235Z,52.60
2017-08-15T12:42:35.800Z,52.40
2017-08-15T12:45:03.131Z,50.50
2017-08-15T12:47:29.661Z,51.00
2017-08-15T12:49:56.237Z,52.40
2017-08-15T12:52:23.570Z,52.50
2017-08-15T12:54:50.118Z,52.20
2017-08-15T12:57:17.439Z,50.80
2017-08-15T12:59:43.794Z,50.90
2017-08-15T13:02:10.173Z,49.10
2017-08-15T13:04:36.603Z,49.40
2017-08-15T13:07:02.929Z,50.80
2017-08-15T13:09:29.327Z,50.60
2017-08-15T13:11:55.643Z,51.00
2017-08-15T13:14:21.941Z,50.80
2017-08-15T13:16:48.641Z,50.40
2017-08-15T13:19:15.126Z,49.90
2017-08-15T13:21:41.488Z,50.30
2017-08-15T13:24:08.090Z,51.70
2017-08-15T13:26:34.458Z,48.80
2017-08-15T13:29:01.039Z,49.80
2017-08-15T13:31:27.585Z,48.40
2017-08-15T13:33:54.144Z,44.90
2017-08-15T13:36:20.696Z,45.60
2017-08-15T13:38:48.637Z,43.80
2017-08-15T13:41:15.036Z,44.80
2017-08-15T13:43:41.366Z,42.80
2017-08-15T13:46:07.933Z,44.50
2017-08-15T13:48:34.303Z,43.80
2017-08-15T13:51:00.841Z,43.30
2017-08-15T13:53:27.372Z,43.60
2017-08-15T13:55:53.777Z,44.10
2017-08-15T13:58:21.101Z,44.70
2017-08-15T14:00:47.445Z,44.60
2017-08-15T14:03:14.068Z,44.20
2017-08-15T14:05:40.710Z,44.70
2017-08-15T14:08:07.074Z,45.20
2017-08-15T14:10:33.432Z,46.10
2017-08-15T14:13:01.058Z,45.30
2017-08-15T14:15:27.426Z,44.70
2017-08-15T14:17:53.785Z,45.40
2017-08-15T14:20:20.121Z,44.70
2017-08-15T14:22:46.790Z,44.70
2017-08-15T14:25:13.920Z,45.70
2017-08-15T14:27:40.280Z,45.90
2017-08-15T14:30:06.655Z,45.50
2017-08-15T14:32:33.764Z,45.50
2017-08-15T14:35:00.132Z,45.60
2017-08-15T14:37:27.279Z,45.40
2017-08-15T14:39:53.636Z,45.40
2017-08-15T14:42:20.189Z,47.20
2017-08-15T14:44:46.536Z,47.20
2017-08-15T14:47:12.900Z,48.00
2017-08-15T14:49:39.273Z,47.40
2017-08-15T14:52:05.668Z,48.10
2017-08-15T14:54:32.117Z,47.90
2017-08-15T14:56:59.222Z,48.60
2017-08-15T14:59:25.792Z,48.60
2017-08-15T15:01:52.950Z,49.00
2017-08-15T15:04:19.393Z,49.00
2017-08-15T15:06:45.790Z,49.50
2017-08-15T15:09:12.149Z,49.80
2017-08-15T15:11:38.950Z,50.20
2017-08-15T15:14:05.440Z,50.70
2017-08-15T15:16:32.099Z,50.90
2017-08-15T15:18:58.669Z,51.00
2017-08-15T15:21:25.316Z,50.50
2017-08-15T15:23:51.680Z,50.90
2017-08-15T15:26:18.093Z,50.40
2017-08-15T15:28:44.673Z,50.40
2017-08-15T15:31:11.280Z,51.50
2017-08-15T15:33:37.653Z,51.00
2017-08-15T15:36:04.275Z,51.10
2017-08-15T15:38:31.664Z,50.50
2017-08-15T15:40:58.110Z,50.50
2017-08-15T15:43:24.541Z,50.80
2017-08-15T15:45:50.884Z,51.30
2017-08-15T15:48:17.497Z,51.60
2017-08-15T15:50:44.260Z,51.50
2017-08-15T15:53:16.986Z,51.70
2017-08-15T15:55:43.325Z,52.00
2017-08-15T15:58:10.428Z,52.70
2017-08-15T16:00:36.790Z,52.80
2017-08-15T16:03:03.784Z,53.10
2017-08-15T16:05:30.172Z,52.60
2017-08-15T16:07:59.016Z,53.20
2017-08-15T16:10:25.364Z,53.60
2017-08-15T16:12:51.741Z,53.50
2017-08-15T16:15:18.092Z,53.40
2017-08-15T16:17:44.489Z,53.60
2017-08-15T16:20:10.824Z,53.20
2017-08-15T16:22:54.661Z,54.00
2017-08-15T16:25:42.152Z,53.90
2017-08-15T16:28:08.608Z,53.90
2017-08-15T16:30:34.940Z,54.20
2017-08-15T16:33:01.333Z,54.20
2017-08-15T16:35:27.815Z,53.70
2017-08-15T16:37:54.236Z,53.90
2017-08-15T16:40:20.634Z,55.00
2017-08-15T16:42:48.619Z,55.10
2017-08-15T16:45:14.992Z,55.10
2017-08-15T16:47:41.375Z,56.20
2017-08-15T16:50:08.588Z,58.30
2017-08-15T16:52:34.964Z,57.30
2017-08-15T16:55:02.156Z,58.10
2017-08-15T16:57:28.524Z,58.20
2017-08-15T16:59:54.966Z,58.60
2017-08-15T17:02:22.309Z,59.20
2017-08-15T17:04:48.730Z,59.50
2017-08-15T17:07:15.095Z,59.10
2017-08-15T17:09:42.184Z,59.70
2017-08-15T17:12:08.521Z,59.70
2017-08-15T17:14:34.847Z,59.80
2017-08-15T17:17:01.279Z,59.80
2017-08-15T17:19:27.598Z,60.00
2017-08-15T17:21:53.994Z,60.30
2017-08-15T17:24:20.371Z,59.50
2017-08-15T17:26:47.476Z,60.00
2017-08-15T17:29:13.849Z,60.30
2017-08-15T17:31:40.245Z,60.40
2017-08-15T17:34:06.647Z,60.50
2017-08-15T17:36:32.985Z,60.50
2017-08-15T17:38:59.352Z,60.80
2017-08-15T17:41:25.792Z,60.90
2017-08-15T17:43:52.282Z,60.60
2017-08-15T17:46:18.604Z,60.20
2017-08-15T17:48:44.945Z,60.20
2017-08-15T17:51:16.486Z,60.30
2017-08-15T17:53:42.812Z,59.50
2017-08-15T17:56:09.148Z,59.20
2017-08-15T17:58:36.324Z,59.20
2017-08-15T18:01:02.692Z,58.40
2017-08-15T18:03:29.125Z,58.30
2017-08-15T18:05:55.510Z,57.80
2017-08-15T18:08:22.574Z,58.40
2017-08-15T18:10:48.937Z,58.40
2017-08-15T18:13:15.395Z,57.80
2017-08-15T18:15:41.789Z,58.10
2017-08-15T18:18:08.124Z,58.60
2017-08-15T18:20:34.469Z,58.90
2017-08-15T18:23:00.791Z,58.90
2017-08-15T18:25:27.116Z,59.40
2017-08-15T18:27:53.458Z,59.50
2017-08-15T18:30:19.900Z,59.60
2017-08-15T18:32:46.244Z,59.40
2017-08-15T18:35:13.329Z,59.50
2017-08-15T18:37:39.652Z,59.30
2017-08-15T18:40:06.027Z,59.50
2017-08-15T18:42:32.414Z,58.80
2017-08-15T18:44:58.720Z,58.40
2017-08-15T18:47:25.056Z,58.60
2017-08-15T18:49:52.134Z,58.10
2017-08-15T18:52:23.709Z,58.00
2017-08-15T18:54:50.032Z,57.70
2017-08-15T18:57:16.346Z,58.00
2017-08-15T18:59:42.664Z,58.10
2017-08-15T19:02:08.990Z,58.50
2017-08-15T19:04:35.321Z,58.70
2017-08-15T19:07:01.654Z,59.00
2017-08-15T19:09:27.990Z,58.70
2017-08-15T19:11:54.400Z,58.50
2017-08-15T19:14:20.719Z,58.30
2017-08-15T19:16:47.078Z,58.70
2017-08-15T19:19:13.380Z,58.10
2017-08-15T19:21:39.913Z,57.70
2017-08-15T19:24:06.254Z,57.10
2017-08-15T19:26:32.689Z,57.10
2017-08-15T19:28:59.117Z,57.40
2017-08-15T19:31:25.481Z,57.30
2017-08-15T19:33:51.837Z,57.90
2017-08-15T19:36:18.224Z,57.80
2017-08-15T19:38:44.612Z,57.80
2017-08-15T19:41:10.955Z,57.80
2017-08-15T19:43:37.584Z,57.70
2017-08-15T19:46:04.677Z,57.90
2017-08-15T19:48:31.176Z,57.90
2017-08-15T19:50:57.548Z,57.80
2017-08-15T19:53:24.017Z,57.90
2017-08-15T19:55:50.455Z,57.80
2017-08-15T19:58:17.040Z,58.20
2017-08-15T20:00:43.389Z,58.70
2017-08-15T20:03:09.776Z,58.80
2017-08-15T20:05:36.124Z,58.60
2017-08-15T20:08:02.485Z,58.80
2017-08-15T20:10:28.883Z,58.60
2017-08-15T20:12:55.652Z,58.70
2017-08-15T20:15:22.015Z,59.00
2017-08-15T20:17:48.345Z,58.80
2017-08-15T20:20:14.716Z,59.10
2017-08-15T20:22:41.147Z,59.10
2017-08-15T20:25:07.752Z,59.00
2017-08-15T20:27:34.083Z,59.30
2017-08-15T20:30:00.428Z,59.30
2017-08-15T20:32:26.744Z,59.20
2017-08-15T20:34:53.088Z,59.30
2017-08-15T20:37:19.448Z,59.20
2017-08-15T20:39:45.889Z,59.30
2017-08-15T20:42:12.889Z,59.70
2017-08-15T20:44:39.290Z,59.60
2017-08-15T20:47:05.710Z,59.60
2017-08-15T20:49:32.044Z,59.50
2017-08-15T20:51:58.402Z,59.40
2017-08-15T20:54:25.564Z,60.00
2017-08-15T20:56:52.129Z,59.90
2017-08-15T20:59:18.440Z,60.10
2017-08-15T21:01:45.170Z,60.30
2017-08-15T21:04:12.456Z,60.20
2017-08-15T21:06:38.784Z,60.20
2017-08-15T21:09:05.128Z,60.10
2017-08-15T21:11:31.445Z,60.20
2017-08-15T21:13:57.784Z,60.10
2017-08-15T21:16:24.088Z,60.50
2017-08-15T21:18:50.423Z,60.40
2017-08-15T21:21:16.769Z,60.30
2017-08-15T21:23:43.122Z,60.40
2017-08-15T21:26:10.176Z,61.10
2017-08-15T21:28:36.502Z,60.70
2017-08-15T21:31:02.840Z,60.60
2017-08-15T21:33:29.206Z,60.80
2017-08-15T21:35:55.520Z,61.00
2017-08-15T21:38:21.833Z,60.90
2017-08-15T21:40:48.148Z,61.00
2017-08-15T21:43:14.488Z,61.00
2017-08-15T21:45:40.813Z,61.40
2017-08-15T21:48:07.180Z,61.50
2017-08-15T21:50:36.118Z,61.60
2017-08-15T21:53:02.452Z,61.50
2017-08-15T21:55:28.820Z,61.80
2017-08-15T21:57:55.161Z,62.00
2017-08-15T22:00:21.536Z,61.80
2017-08-15T22:02:47.860Z,61.60
2017-08-15T22:05:14.181Z,61.60
2017-08-15T22:07:40.533Z,61.30
2017-08-15T22:10:06.871Z,61.30
2017-08-15T22:12:35.487Z,61.00
2017-08-15T22:15:01.830Z,60.90
2017-08-15T22:17:28.163Z,60.90
2017-08-15T22:19:54.506Z,60.90
2017-08-15T22:22:20.844Z,60.70
2017-08-15T22:24:47.229Z,60.80
2017-08-15T22:27:13.605Z,60.40
2017-08-15T22:29:39.922Z,60.60
2017-08-15T22:32:06.312Z,60.70
2017-08-15T22:34:33.348Z,60.60
2017-08-15T22:36:59.653Z,60.50
2017-08-15T22:39:25.982Z,60.80
2017-08-15T22:41:53.150Z,60.80
2017-08-15T22:44:19.520Z,60.80
2017-08-15T22:46:46.608Z,61.20
2017-08-15T22:49:13.014Z,61.20
2017-08-15T22:51:39.342Z,61.20
2017-08-15T22:54:05.687Z,61.20
2017-08-15T22:56:32.026Z,61.10
2017-08-15T22:58:58.748Z,60.90
2017-08-15T23:01:25.130Z,60.90
2017-08-15T23:03:51.481Z,60.80
2017-08-15T23:06:18.513Z,60.60
2017-08-15T23:08:44.992Z,60.60
2017-08-15T23:11:11.374Z,60.80
2017-08-15T23:13:37.672Z,60.90
2017-08-15T23:16:03.984Z,61.50
2017-08-15T23:18:30.489Z,60.80
2017-08-15T23:20:57.552Z,61.00
2017-08-15T23:23:23.876Z,61.00
2017-08-15T23:25:50.212Z,61.10
2017-08-15T23:28:16.547Z,61.40
2017-08-15T23:30:42.924Z,61.00
2017-08-15T23:33:09.313Z,61.70
2017-08-15T23:35:35.652Z,61.40
2017-08-15T23:38:01.976Z,61.50
2017-08-15T23:40:28.308Z,61.90
2017-08-15T23:42:54.640Z,61.70
2017-08-15T23:45:21.730Z,62.00
2017-08-15T23:47:48.045Z,61.60
2017-08-15T23:50:14.367Z,61.60
2017-08-15T23:52:40.681Z,61.50
2017-08-15T23:55:07.494Z,61.80
2017-08-15T23:57:33.840Z,62.00
